Soaring Guidance
Issued by NWS Reno, NV

Home | Current Version | Previous Version | Text Only | Print | Product List | Glossary On
Versions: 1 2 3 4 5 6 7 8 9 10 11 12 13 14
760
UXUS97 KREV 261338
SRGREV

SOARING FORECAST
NATIONAL WEATHER SERVICE - RENO NV
700 AM PDT THU APR 26 2018

THIS SOARING FORECAST IS FOR THE EASTERN SIERRA AND WESTERN NEVADA
WITH SPECIFIC INDICES FOR THE GREATER RENO AREA.

THIS FORECAST IS PREPARED DAILY BY 700 AM AND IS NOT UPDATED.

FOR CURRENT FLIGHT CONDITIONS...FORECASTS...AND ADVISORIES...ACCESS
YOUR LOCAL BRIEFING OUTLET OR FLIGHT SERVICE STATION.

*******************************************************************
FORECASTED LOCAL INDICES FOR RENO:        TODAY     YESTERDAY
FORECASTED MAX TEMP AT RENO (DEG F).....     84          83
FORECASTED TRIGGER TEMPERATURE (DEG F)..     72          68
   EXCEEDED YESTERDAY BY 1055 AM PDT
FORECASTED MAXIMUM ALTITUDE (FT MSL)....  18000       16800
FORECASTED SOARING INDEX (FPM)..........   1086        1074
FORECASTED K-INDEX.........VALID 18Z....     11           1
FORECASTED K-INDEX.........VALID 00Z....     20          20
FORECASTED LIFTED INDEX....VALID 18Z....      3           9
FORECASTED LIFTED INDEX....VALID 00Z....      0           4

AFTERNOON WINDS ALOFT FORECAST
MSL (FT) WIND/TEMP
9000  1408/+12
10000 1408/+09
12000 1508/+03
14000 1610/-02
16000 1712/-08
18000 1818/-14
24000 1825/-27
30000 1830/-43
34000 2025/-52
39000 2126/-61

SLIDE MOUNTAIN DATA:

N/A

SIERRA CREST 8700 FT DATA:
   DATE     TIME  TEMP  RH         WIND
                            DIR   SPEED   GUST
2018-04-26 0600   45   39   074     15     17
2018-04-26 0545   47   35   075     16     18
2018-04-26 0530   48   35   074     11     18
2018-04-26 0515   48   36   084     11     13

RENO TAF FORECAST:
KRNO 261138Z 2612/2712 VRB03KT P6SM BKN200
     FM262000 16008KT P6SM SCT140 SCT200
     FM270100 26011KT P6SM VCSH BKN090 OVC140
     FM270700 30010KT P6SM SCT100 BKN150

CARSON CITY TAF FORECAST:
KCXP 261138Z 2612/2712 VRB03KT P6SM BKN200
     FM262000 09008KT P6SM SCT130 SCT200
     FM270000 26009KT P6SM VCSH BKN080 OVC130
     FM270600 24007KT P6SM SCT090 BKN150

OUTLOOK FOR THE RENO-CARSON CITY-MINDEN AREA:
.FRIDAY...SUNNY. HIGHS 69 TO 74. SOUTHWEST WINDS AROUND 10 MPH
INCREASING TO 15 TO 25 MPH WITH GUSTS UP TO 40 MPH IN THE
AFTERNOON.

SUNRISE AND SUNSET
APRIL 26 2018.........SUNRISE   606 AM PDT   SUNSET   748 PM PDT
APRIL 27 2018.........SUNRISE   605 AM PDT   SUNSET   749 PM PDT



USA.gov is the U.S. government's official web portal to all federal, state and local government web resources and services.